[Jeden Mittwoch | 1830z - 2130z | EDDM] München Mittwoch

Zu Eventkalender hinzugefügt: 59 Daten

Dietmar Brinschwitz

940593
RG München - Leitung
RG München - NAV
Servus beinand,

Nachdem ja o' zapft is, wuin dei Bsucher a aufd Wiesn broacht wern. Mia gfrein uns schoo.

Zu amtsdeutsch: Wir würden uns heut abend auf euren Besuch mit einem Flug von/nach EDDM freuen.

Wetter heute:
EDDM 251220Z 24014KT 9999 FEW036 18/10 Q1010 NOSIG

TAF EDDM 251100Z 2512/2618 25012G22KT 9999 SCT030
PROB30
TEMPO 2512/2518 SHRA FEW012 SCT025TCU
BECMG 2515/2517 23005KT
BECMG 2607/2609 25010KT
Mia segn uns
 
Zuletzt bearbeitet:

Dietmar Brinschwitz

940593
RG München - Leitung
RG München - NAV
Auch heute wie bekannter Wiesen-ATC-Service,

Wetter treibt alle in die Wiesenzelte oder noch besser ins Cockpit:

DDM 021650Z 33011KT 300V010 9999 -RA FEW010 SCT013 BKN025 10/08 Q1010 NOSIG

TAF AMD EDDM 021318Z 0213/0318 24012KT 9999 FEW015 BKN035
PROB30
TEMPO 0213/0214 2500 TSRAGS BKN008CB
BECMG 0214/0216 33012KT
TEMPO 0214/0216 35020G30KT 2500 SHRA BKN009TCU
BECMG 0219/0221 27006KT
BECMG 0307/0309 27011KT
 

Dietmar Brinschwitz

940593
RG München - Leitung
RG München - NAV
Die "Wiesen" ist vorbei,
viele von den Besuchern hängten noch einen Kurzurlaub im schönen Bayern dran und möchten heute abend jedoch nach Hause geflogen werden.

Lotsen und Piloten bereiten sich schon auf den neuen Voicecodec vor, bieten jedoch wie immer den besten "royalen boarischen ATC".

Wettermäßig werden die Flieger heute "gewaschen und frisch verföhnt":
EDDM 090620Z 31003KT 270V020 9999 -RA OVC041 12/10 Q1014 NOSIG

TAF EDDM 090500Z 0906/1012 25005KT 9999 BKN030
PROB30
TEMPO 0906/0910 4500 RADZ BKN012
BECMG 0911/0913 23012KT
TEMPO 0912/0916 25015G25KT RA BKN012
PROB30
TEMPO 0920/0923 28020G35KT SHRA BKN020TCU
BECMG 1007/1009 25015G30KT
TEMPO 1008/1012 25020G35KT
 

Dietmar Brinschwitz

940593
RG München - Leitung
RG München - NAV
Mittwoch is heit,

"Af der Welln, san dei Lotsen und dei Aluminiumkutscher etzerdla subber draaf."

Nicht nur dass es einen neuen Voice Codec gibt, sondern auch weil heute in München ein CTR Trainee sein Können unter Beweis stellt.

Ruhiges Herbstwetter mit herbstlichem Nebel erwartet euch am heutigen MüMi:
EDDM 161620Z VRB02KT CAVOK 15/05 Q1016 NOSIG

TAF EDDM 161100Z 1612/1718 24011KT 9999 FEW035
BECMG 1614/1616 24006KT
BECMG 1616/1618 VRB02KT
TEMPO 1700/1707 2500 BCFG
TEMPO 1711/1716 09005KT
 

Michael Hoffmann

1399859
RG München - Event
RG München - Mentor
Ja, genau, München Mittwoch! Ging auch schon vor 10 Minuten los.
Wir wünschen euch viel Spaß.

EDDM 131700Z 1318/1424 19004KT 9999 FEW045 PROB30 TEMPO 1402/1407 0400 FZFG VV001 BECMG 1404/1407 09007KT 2500 BR OVC004 BECMG 1408/1410 9999 SCT008
16.11.19, mark your calendars: EHAM EDDM City Shuttle :)
Infos hier!
 
Oben